Time;durP1;ratioP1;P1;durP2;ratioP2;P2;SDS_P1;SDS_P2;PMS_P1;PMS_P2;Temp;Humidity;BMP_temperature;BMP_pressure;BME280_temperature;BME280_humidity;BME280_pressure;Samples;Min_cycle;Max_cycle;Signal;HPM_P1;HPM_P2
2022/01/07 00:01:26;;;;;;;8.77;4.57;;;-0.10;99.90;;;;;;4992457;28;20094;-75
2022/01/07 00:03:52;;;;;;;10.40;4.13;;;-0.40;99.90;;;;;;5005667;28;20030;-76
2022/01/07 00:06:18;;;;;;;14.38;6.15;;;-0.40;99.90;;;;;;4998034;28;20160;-75
2022/01/07 00:08:47;;;;;;;10.27;4.18;;;-0.30;99.90;;;;;;4991392;28;20034;-76
2022/01/07 00:11:13;;;;;;;13.63;4.97;;;-0.50;99.90;;;;;;4990256;28;20025;-76
2022/01/07 00:13:38;;;;;;;8.75;4.60;;;-0.40;99.90;;;;;;4989213;28;20026;-76
2022/01/07 00:16:05;;;;;;;8.98;4.85;;;-0.50;99.90;;;;;;4988555;28;20097;-76
2022/01/07 00:18:30;;;;;;;8.85;4.55;;;-0.40;99.90;;;;;;5006587;28;20341;-75
2022/01/07 00:20:56;;;;;;;7.95;4.60;;;-0.40;99.90;;;;;;4991978;28;20030;-75
2022/01/07 00:23:22;;;;;;;11.88;5.15;;;-0.30;99.90;;;;;;4989835;28;20022;-76
2022/01/07 00:25:49;;;;;;;8.73;5.25;;;-0.40;99.90;;;;;;4992930;28;20031;-76
2022/01/07 00:28:15;;;;;;;10.30;4.32;;;-0.50;99.90;;;;;;4997587;28;20026;-76
2022/01/07 00:30:40;;;;;;;6.70;4.18;;;-0.40;99.90;;;;;;5008416;28;20037;-76
2022/01/07 00:33:07;;;;;;;10.55;5.40;;;-0.10;99.90;;;;;;4999291;28;20030;-76
2022/01/07 00:35:33;;;;;;;13.10;5.03;;;-0.30;99.90;;;;;;4991673;28;20022;-76
2022/01/07 00:37:58;;;;;;;10.02;5.43;;;-0.30;99.90;;;;;;4994490;28;20091;-76
2022/01/07 00:40:25;;;;;;;7.13;4.55;;;-0.40;99.90;;;;;;4991008;28;20487;-76
2022/01/07 00:42:52;;;;;;;11.35;6.18;;;-0.40;99.90;;;;;;4995457;28;20022;-75
2022/01/07 00:45:20;;;;;;;8.13;4.15;;;-0.40;99.90;;;;;;5008533;28;20057;-76
2022/01/07 00:47:46;;;;;;;11.82;4.97;;;-0.30;99.90;;;;;;4990172;28;20423;-75
2022/01/07 00:50:15;;;;;;;8.90;5.55;;;0.00;99.90;;;;;;4991270;28;20033;-75
2022/01/07 00:52:41;;;;;;;8.15;4.63;;;-0.30;99.90;;;;;;4992311;28;20187;-76
2022/01/07 00:55:08;;;;;;;9.95;5.85;;;-0.20;99.90;;;;;;4993609;28;20045;-76
2022/01/07 00:57:34;;;;;;;12.88;5.32;;;-0.30;99.90;;;;;;4986757;28;20022;-75
2022/01/07 00:59:59;;;;;;;10.82;5.07;;;-0.40;99.90;;;;;;4992347;28;20099;-76
2022/01/07 01:02:25;;;;;;;8.90;4.55;;;-0.30;99.90;;;;;;4990182;28;20027;-75
2022/01/07 01:04:51;;;;;;;10.57;4.18;;;-0.30;99.90;;;;;;5000461;28;20133;-76
2022/01/07 01:07:17;;;;;;;11.02;4.32;;;-0.30;99.90;;;;;;5017697;28;20462;-75
2022/01/07 01:09:43;;;;;;;11.10;4.53;;;-0.40;99.90;;;;;;5004967;28;20025;-76
2022/01/07 01:12:10;;;;;;;12.27;4.65;;;-0.40;99.90;;;;;;5005302;28;20029;-76
2022/01/07 01:14:36;;;;;;;9.52;4.40;;;-0.40;99.90;;;;;;5005390;28;20037;-75
2022/01/07 01:17:02;;;;;;;9.13;4.82;;;-0.40;99.90;;;;;;5007121;28;20425;-76
2022/01/07 01:19:28;;;;;;;9.25;5.10;;;-0.40;99.90;;;;;;5009918;28;20057;-76
2022/01/07 01:21:55;;;;;;;10.32;4.78;;;-0.20;99.90;;;;;;5027870;28;20516;-75
2022/01/07 01:24:21;;;;;;;9.73;5.03;;;-0.30;99.90;;;;;;5025977;28;20854;-76
2022/01/07 01:26:47;;;;;;;7.22;4.65;;;-0.30;99.90;;;;;;5025683;28;20440;-76
2022/01/07 01:29:12;;;;;;;14.20;4.30;;;-0.40;99.90;;;;;;5026840;28;20021;-75
2022/01/07 01:31:38;;;;;;;7.55;3.97;;;-0.30;99.90;;;;;;5027779;28;20025;-75
2022/01/07 01:34:04;;;;;;;8.00;4.22;;;-0.30;99.90;;;;;;5035910;28;20022;-75
2022/01/07 01:36:31;;;;;;;9.52;5.00;;;-0.30;99.90;;;;;;5026809;28;20033;-75
2022/01/07 01:38:59;;;;;;;8.60;4.68;;;-0.50;99.90;;;;;;5027529;28;20021;-76
2022/01/07 01:41:25;;;;;;;10.73;4.30;;;;;;;;;;5026870;28;20053;-75
2022/01/07 01:43:51;;;;;;;11.13;4.60;;;-0.70;99.90;;;;;;5027089;28;20041;-75
2022/01/07 01:46:17;;;;;;;5.80;3.75;;;-0.30;99.90;;;;;;5026150;28;20030;-76
2022/01/07 01:48:43;;;;;;;8.40;4.10;;;-0.50;99.90;;;;;;5027004;28;20275;-76
2022/01/07 01:51:09;;;;;;;9.73;4.05;;;-1.00;99.90;;;;;;5026317;28;20477;-76
2022/01/07 01:53:35;;;;;;;7.25;4.45;;;-1.10;99.90;;;;;;5027707;28;20096;-76
2022/01/07 01:56:00;;;;;;;9.05;4.10;;;-1.20;99.90;;;;;;5025198;28;20335;-76
2022/01/07 01:58:27;;;;;;;15.43;4.78;;;-1.30;99.90;;;;;;5024117;28;20415;-75
2022/01/07 02:00:52;;;;;;;9.52;5.47;;;-1.30;99.90;;;;;;5023710;28;20084;-75
2022/01/07 02:03:18;;;;;;;7.55;3.72;;;-1.30;99.90;;;;;;5028324;28;20493;-75
2022/01/07 02:05:45;;;;;;;7.55;3.90;;;-1.30;99.90;;;;;;5028972;28;20044;-74
2022/01/07 02:08:11;;;;;;;8.70;3.65;;;-0.80;99.90;;;;;;5028369;28;20033;-75
2022/01/07 02:10:37;;;;;;;9.70;4.45;;;-0.70;99.90;;;;;;5030107;28;20022;-75
2022/01/07 02:13:03;;;;;;;6.50;4.45;;;-1.60;99.90;;;;;;5030867;28;20463;-75
2022/01/07 02:15:29;;;;;;;9.88;4.50;;;-1.50;99.90;;;;;;5031259;28;20034;-75
2022/01/07 02:17:57;;;;;;;9.30;3.85;;;-1.10;99.90;;;;;;5029431;28;20128;-75
2022/01/07 02:20:25;;;;;;;15.65;3.75;;;-1.60;99.90;;;;;;5018364;28;20049;-75
2022/01/07 02:22:53;;;;;;;8.23;4.40;;;-1.50;99.90;;;;;;5010242;28;20080;-75
2022/01/07 02:25:20;;;;;;;7.90;4.43;;;-1.90;99.90;;;;;;5011820;28;20038;-75
2022/01/07 02:27:47;;;;;;;11.93;4.93;;;-1.80;99.90;;;;;;5009167;28;20030;-75
2022/01/07 02:30:18;;;;;;;9.30;4.20;;;-2.20;99.90;;;;;;5011551;28;20458;-75
2022/01/07 02:32:44;;;;;;;13.50;4.03;;;-1.30;99.90;;;;;;5011641;28;20418;-75
2022/01/07 02:35:10;;;;;;;10.68;4.15;;;-2.30;99.90;;;;;;5012244;28;20030;-75
2022/01/07 02:37:36;;;;;;;6.82;3.88;;;-2.30;99.90;;;;;;5011937;28;20103;-75
2022/01/07 02:40:04;;;;;;;8.57;4.78;;;-2.00;99.90;;;;;;5011195;28;20045;-75
2022/01/07 02:42:30;;;;;;;14.80;4.10;;;-2.50;99.90;;;;;;5010332;28;20026;-75
2022/01/07 02:44:55;;;;;;;6.55;3.40;;;-2.50;99.90;;;;;;5011106;28;20041;-75
2022/01/07 02:47:21;;;;;;;5.85;3.67;;;-1.80;99.90;;;;;;5012053;28;20026;-75
2022/01/07 02:49:48;;;;;;;8.95;4.03;;;-1.90;99.90;;;;;;5013514;28;20049;-75
2022/01/07 02:52:15;;;;;;;8.27;4.30;;;-2.50;99.90;;;;;;5010696;28;20398;-76
2022/01/07 02:54:40;;;;;;;14.05;4.93;;;-1.70;99.90;;;;;;5013913;28;20026;-75
2022/01/07 02:57:06;;;;;;;8.48;4.53;;;-1.80;99.90;;;;;;5012381;28;20062;-76
2022/01/07 02:59:32;;;;;;;5.00;2.95;;;-2.50;99.90;;;;;;5012022;28;20042;-75
2022/01/07 03:01:58;;;;;;;8.25;4.45;;;-1.60;99.90;;;;;;5012258;28;20030;-75
2022/01/07 03:04:26;;;;;;;7.05;3.40;;;-2.00;99.90;;;;;;5009975;28;20030;-75
2022/01/07 03:06:52;;;;;;;9.23;3.90;;;-2.50;99.90;;;;;;5016416;28;20168;-75
2022/01/07 03:09:18;;;;;;;6.32;3.72;;;-2.20;99.90;;;;;;5018921;28;20491;-75
2022/01/07 03:11:43;;;;;;;10.07;4.65;;;-1.50;99.90;;;;;;5018382;28;20648;-75
2022/01/07 03:14:09;;;;;;;6.47;3.58;;;-1.40;99.90;;;;;;5015262;28;20026;-75
2022/01/07 03:16:35;;;;;;;7.18;3.22;;;-1.40;99.90;;;;;;5016828;28;20046;-75
2022/01/07 03:19:01;;;;;;;6.95;3.15;;;-2.90;99.90;;;;;;4999733;28;20422;-75
2022/01/07 03:21:27;;;;;;;6.63;3.22;;;-2.20;99.90;;;;;;5033343;28;20167;-75
2022/01/07 03:23:53;;;;;;;8.55;3.65;;;-2.80;99.90;;;;;;5037481;28;20025;-76
2022/01/07 03:26:19;;;;;;;8.43;3.58;;;-2.70;99.90;;;;;;5038857;28;20030;-75
2022/01/07 03:28:46;;;;;;;8.63;3.90;;;-2.40;99.90;;;;;;5037074;28;20033;-75
2022/01/07 03:31:11;;;;;;;6.45;3.78;;;-2.50;99.90;;;;;;5039470;28;20048;-75
2022/01/07 03:33:37;;;;;;;10.27;4.95;;;-2.40;99.90;;;;;;5039819;28;20022;-75
2022/01/07 03:36:03;;;;;;;9.23;4.38;;;-2.10;99.90;;;;;;5038419;28;20029;-76
2022/01/07 03:38:29;;;;;;;9.88;3.80;;;-2.60;99.90;;;;;;5038740;28;20028;-75
2022/01/07 03:40:55;;;;;;;10.63;5.65;;;-2.60;99.90;;;;;;5039370;28;20033;-75
2022/01/07 03:43:21;;;;;;;6.72;2.95;;;-1.90;99.90;;;;;;5039010;28;20112;-75
2022/01/07 03:45:47;;;;;;;8.48;4.20;;;-2.00;99.90;;;;;;5037475;28;20573;-75
2022/01/07 03:48:13;;;;;;;8.63;3.70;;;-2.10;99.90;;;;;;5032108;28;20021;-76
2022/01/07 03:50:39;;;;;;;9.80;4.68;;;-2.40;99.90;;;;;;5030878;28;20029;-75
2022/01/07 03:53:05;;;;;;;6.38;4.05;;;-2.60;99.90;;;;;;5032664;28;20035;-75
2022/01/07 03:55:31;;;;;;;11.35;3.45;;;-2.70;99.90;;;;;;5032093;28;20053;-75
2022/01/07 03:57:57;;;;;;;9.70;3.80;;;-2.20;99.90;;;;;;5031137;28;20490;-75
2022/01/07 04:00:33;;;;;;;5.82;3.88;;;-2.60;99.90;;;;;;5030730;28;20130;-75
2022/01/07 04:03:00;;;;;;;7.63;3.65;;;-2.60;99.90;;;;;;5028586;28;20470;-75
2022/01/07 04:05:26;;;;;;;6.25;3.55;;;-2.50;99.90;;;;;;5028210;28;20025;-75
2022/01/07 04:07:52;;;;;;;5.60;3.38;;;-2.50;99.90;;;;;;5030946;28;20121;-75
2022/01/07 04:10:18;;;;;;;10.65;4.82;;;-2.40;99.90;;;;;;5037355;28;20033;-75
2022/01/07 04:12:43;;;;;;;7.20;3.30;;;-2.30;99.90;;;;;;5037181;28;20032;-75
2022/01/07 04:15:09;;;;;;;7.13;3.25;;;-2.00;99.90;;;;;;5035960;28;20497;-75
2022/01/07 04:17:42;;;;;;;5.88;3.90;;;-2.20;99.90;;;;;;5030189;28;20044;-75
2022/01/07 04:20:09;;;;;;;8.30;3.60;;;-2.20;99.90;;;;;;5021302;28;20128;-75
2022/01/07 04:22:36;;;;;;;6.20;3.88;;;-2.10;99.90;;;;;;5011587;28;20120;-75
2022/01/07 04:25:04;;;;;;;6.15;3.38;;;-2.00;99.90;;;;;;5012969;28;20045;-75
2022/01/07 04:27:30;;;;;;;8.90;3.80;;;-2.00;99.90;;;;;;5019045;28;20019;-75
2022/01/07 04:29:56;;;;;;;7.18;3.50;;;-1.70;99.90;;;;;;5020025;28;20041;-75
2022/01/07 04:32:22;;;;;;;6.10;3.35;;;-2.00;99.90;;;;;;5011355;28;20033;-75
2022/01/07 04:34:49;;;;;;;6.38;2.90;;;-0.60;99.90;;;;;;5009479;28;20204;-76
2022/01/07 04:37:14;;;;;;;4.95;2.78;;;-2.00;99.90;;;;;;5008373;28;20032;-75
2022/01/07 04:39:40;;;;;;;5.82;3.40;;;-2.00;99.90;;;;;;5009604;28;20030;-75
2022/01/07 04:42:06;;;;;;;7.30;2.88;;;-1.30;99.90;;;;;;5007914;28;20083;-75
2022/01/07 04:44:32;;;;;;;7.28;3.15;;;-2.00;99.90;;;;;;5007285;28;20034;-75
2022/01/07 04:46:57;;;;;;;5.22;2.78;;;-1.70;99.90;;;;;;5008792;28;20199;-75
2022/01/07 04:49:23;;;;;;;6.18;3.85;;;-1.60;99.90;;;;;;5006446;28;20025;-75
2022/01/07 04:51:49;;;;;;;6.55;3.30;;;-1.30;99.90;;;;;;5007098;28;20080;-75
2022/01/07 04:54:15;;;;;;;5.20;2.67;;;-1.90;99.90;;;;;;5009140;28;20058;-75
2022/01/07 04:56:40;;;;;;;5.55;4.03;;;-1.30;99.90;;;;;;5009216;28;20050;-76
2022/01/07 04:59:06;;;;;;;8.65;3.00;;;-1.90;99.90;;;;;;5007621;28;20034;-75
2022/01/07 05:01:31;;;;;;;6.57;3.47;;;-1.40;99.90;;;;;;5008454;28;20029;-75
2022/01/07 05:03:57;;;;;;;4.65;3.17;;;-2.10;99.90;;;;;;5008458;28;20036;-75
2022/01/07 05:09:07;;;;;;;5.25;2.50;;;-1.70;99.90;;;;;;5010079;28;20040;-75
2022/01/07 05:11:34;;;;;;;9.27;3.38;;;-1.80;99.90;;;;;;5010014;28;20277;-75
2022/01/07 05:13:59;;;;;;;7.05;3.25;;;-2.10;99.90;;;;;;5008918;28;20454;-75
2022/01/07 05:16:26;;;;;;;7.78;3.05;;;-2.10;99.90;;;;;;5006996;28;20034;-75
2022/01/07 05:18:52;;;;;;;5.45;3.25;;;-1.70;99.90;;;;;;5008777;28;20111;-75
2022/01/07 05:21:17;;;;;;;4.65;2.58;;;-2.20;99.90;;;;;;5027640;28;20041;-75
2022/01/07 05:23:43;;;;;;;7.35;2.67;;;-1.00;99.90;;;;;;5026235;28;20083;-75
2022/01/07 05:26:09;;;;;;;4.32;2.35;;;-1.60;99.90;;;;;;5026418;28;20037;-76
2022/01/07 05:28:34;;;;;;;5.35;2.65;;;-1.20;99.90;;;;;;5029540;28;20625;-75
2022/01/07 05:31:03;;;;;;;5.43;2.90;;;-1.60;99.90;;;;;;5029255;28;20033;-75
2022/01/07 05:33:28;;;;;;;5.28;3.35;;;-1.80;99.90;;;;;;5036946;28;20214;-76
2022/01/07 05:35:54;;;;;;;11.32;2.97;;;-2.00;99.90;;;;;;5028912;28;20021;-75
2022/01/07 05:38:20;;;;;;;4.88;2.42;;;-1.30;99.90;;;;;;5031701;28;20025;-75
2022/01/07 05:40:45;;;;;;;5.57;3.05;;;-1.50;99.90;;;;;;5032100;28;20116;-74
2022/01/07 05:43:11;;;;;;;5.32;3.33;;;-1.70;99.90;;;;;;5032200;28;20022;-75
2022/01/07 05:45:37;;;;;;;5.65;2.47;;;-1.30;99.90;;;;;;5030893;28;20033;-75
2022/01/07 05:48:03;;;;;;;8.73;2.83;;;-2.00;99.90;;;;;;5032947;28;20470;-75
2022/01/07 05:50:29;;;;;;;5.82;2.80;;;-2.00;99.90;;;;;;5032040;28;20470;-75
2022/01/07 05:52:55;;;;;;;4.32;2.55;;;-2.00;99.90;;;;;;5046673;28;20022;-75
2022/01/07 05:55:20;;;;;;;6.70;3.00;;;-1.50;99.90;;;;;;5036679;28;20025;-74
2022/01/07 05:57:46;;;;;;;5.55;2.75;;;-1.90;99.90;;;;;;5041292;28;20033;-75
2022/01/07 06:00:12;;;;;;;4.40;3.38;;;-1.70;99.90;;;;;;5021196;28;20338;-75
2022/01/07 06:02:38;;;;;;;4.82;2.85;;;-1.80;99.90;;;;;;5028585;28;20089;-75
2022/01/07 06:05:04;;;;;;;5.43;3.22;;;-1.90;99.90;;;;;;5012301;28;20041;-75
2022/01/07 06:07:30;;;;;;;12.23;3.08;;;-1.90;99.90;;;;;;5007711;28;20022;-75
2022/01/07 06:09:56;;;;;;;5.93;3.47;;;-1.80;99.90;;;;;;5005857;28;20030;-75
2022/01/07 06:12:21;;;;;;;6.28;2.83;;;-0.90;99.90;;;;;;5012937;28;20022;-75
2022/01/07 06:14:47;;;;;;;9.63;2.97;;;-1.80;99.90;;;;;;5014988;28;20030;-75
2022/01/07 06:17:13;;;;;;;3.65;2.85;;;-1.60;99.90;;;;;;5007708;28;20022;-75
2022/01/07 06:19:39;;;;;;;5.68;2.58;;;-1.20;99.90;;;;;;5026624;28;20053;-75
2022/01/07 06:22:05;;;;;;;2.88;2.55;;;-1.40;99.90;;;;;;5027567;28;20540;-75
2022/01/07 06:24:30;;;;;;;7.10;3.53;;;-1.60;99.90;;;;;;5030215;28;20017;-76
2022/01/07 06:26:56;;;;;;;6.78;3.38;;;-1.30;99.90;;;;;;5043046;28;20029;-75
2022/01/07 06:29:22;;;;;;;5.00;2.65;;;0.00;99.90;;;;;;5043207;28;20059;-75
2022/01/07 06:31:50;;;;;;;9.02;3.42;;;-1.40;99.90;;;;;;5044014;28;20021;-75
2022/01/07 06:34:20;;;;;;;6.75;4.15;;;-1.60;99.90;;;;;;5032267;28;20025;-75
2022/01/07 06:36:49;;;;;;;14.00;4.82;;;-1.40;99.90;;;;;;5029831;28;20032;-75
2022/01/07 06:39:16;;;;;;;8.77;4.90;;;-1.90;99.90;;;;;;5030387;28;20040;-75
2022/01/07 06:41:42;;;;;;;7.13;3.90;;;-1.90;99.90;;;;;;5027866;28;20516;-75
2022/01/07 06:44:07;;;;;;;11.60;4.85;;;-1.90;99.90;;;;;;5030450;28;20034;-75
2022/01/07 06:46:33;;;;;;;8.23;3.13;;;-1.70;99.90;;;;;;5044841;28;20049;-75
2022/01/07 06:48:59;;;;;;;5.30;3.38;;;-1.90;99.90;;;;;;5047144;28;20112;-75
2022/01/07 06:51:24;;;;;;;8.13;3.78;;;-1.10;99.90;;;;;;5047974;28;20045;-76
2022/01/07 06:53:50;;;;;;;8.93;4.40;;;-1.60;99.90;;;;;;5039183;28;20034;-74
2022/01/07 06:56:16;;;;;;;7.78;4.07;;;-0.80;99.90;;;;;;5042090;28;20033;-73
2022/01/07 06:58:42;;;;;;;6.07;3.58;;;-1.60;99.90;;;;;;5038414;28;20108;-74
2022/01/07 07:01:07;;;;;;;7.85;3.50;;;-2.00;99.90;;;;;;5043202;28;20114;-74
2022/01/07 07:03:35;;;;;;;10.25;4.60;;;-1.80;99.90;;;;;;5047505;28;20299;-74
2022/01/07 07:06:01;;;;;;;10.55;4.72;;;-1.90;99.90;;;;;;5040385;28;20034;-73
2022/01/07 07:08:28;;;;;;;8.82;4.43;;;-1.90;99.90;;;;;;5029394;28;20025;-75
2022/01/07 07:10:54;;;;;;;12.15;5.20;;;-1.10;99.90;;;;;;5040542;28;20085;-74
2022/01/07 07:13:20;;;;;;;8.65;4.10;;;-2.00;99.90;;;;;;5040270;28;20163;-74
2022/01/07 07:15:46;;;;;;;9.38;4.38;;;-1.70;99.90;;;;;;5033488;28;20116;-73
2022/01/07 07:18:13;;;;;;;6.72;4.25;;;-1.30;99.90;;;;;;5038794;28;20112;-73
2022/01/07 07:20:38;;;;;;;6.90;3.80;;;-1.90;99.90;;;;;;5022512;28;20046;-74
2022/01/07 07:23:04;;;;;;;9.23;4.22;;;-2.00;99.90;;;;;;5012855;28;20026;-74
2022/01/07 07:25:30;;;;;;;12.20;3.78;;;-1.80;99.90;;;;;;5015960;28;20057;-74
2022/01/07 07:27:55;;;;;;;6.18;4.00;;;-1.20;99.90;;;;;;5016511;28;20030;-74
2022/01/07 07:30:21;;;;;;;7.07;4.20;;;-1.70;99.90;;;;;;5018730;28;20394;-74
2022/01/07 07:32:48;;;;;;;9.55;3.78;;;-1.30;99.90;;;;;;5018025;28;20022;-74
2022/01/07 07:37:46;;;;;;;9.18;3.90;;;-2.50;99.90;;;;;;5019646;28;20041;-74
2022/01/07 07:40:12;;;;;;;8.60;3.88;;;-1.50;99.90;;;;;;5017607;28;20065;-74
2022/01/07 07:42:38;;;;;;;5.95;3.10;;;-2.50;99.90;;;;;;5014994;28;20022;-75
2022/01/07 07:45:05;;;;;;;6.30;4.05;;;-2.30;99.90;;;;;;5018913;28;20029;-73
2022/01/07 07:47:34;;;;;;;4.05;3.13;;;-2.60;99.90;;;;;;5014078;28;20336;-74
2022/01/07 07:49:59;;;;;;;9.30;3.95;;;-2.60;99.90;;;;;;5012341;28;20030;-75
2022/01/07 07:52:25;;;;;;;13.32;4.70;;;-2.10;99.90;;;;;;5011311;28;20025;-74
2022/01/07 07:54:51;;;;;;;5.35;3.03;;;-2.20;99.90;;;;;;5014258;28;20037;-74
2022/01/07 07:57:17;;;;;;;8.48;4.35;;;-2.50;99.90;;;;;;5012321;28;20030;-73
2022/01/07 07:59:42;;;;;;;12.40;5.03;;;-2.50;99.90;;;;;;5010321;28;20101;-74
2022/01/07 08:02:09;;;;;;;8.05;3.75;;;-1.70;99.90;;;;;;5009351;28;20577;-74
2022/01/07 08:04:38;;;;;;;7.38;3.25;;;-2.30;99.90;;;;;;5015225;28;20032;-74
2022/01/07 08:07:04;;;;;;;10.02;4.55;;;-1.60;99.90;;;;;;5012804;28;20030;-73
2022/01/07 08:09:34;;;;;;;6.28;4.00;;;-1.90;99.90;;;;;;5009451;28;20570;-75
2022/01/07 08:12:15;;;;;;;9.95;5.20;;;-1.80;99.90;;;;;;5010305;28;20034;-75
2022/01/07 08:17:25;;;;;;;14.80;6.13;;;-1.60;99.90;;;;;;5009714;28;20367;-73
2022/01/07 08:19:51;;;;;;;12.57;5.47;;;-1.20;99.90;;;;;;5013211;28;20045;-74
2022/01/07 08:22:17;;;;;;;15.40;6.53;;;-1.20;99.90;;;;;;5026686;28;20024;-75
2022/01/07 08:24:43;;;;;;;15.57;6.60;;;-0.70;99.90;;;;;;5028250;28;20041;-75
2022/01/07 08:27:08;;;;;;;10.63;4.57;;;-0.80;99.90;;;;;;5028658;28;20034;-74
2022/01/07 08:29:36;;;;;;;9.02;4.80;;;-0.50;99.90;;;;;;5027215;28;20057;-74
2022/01/07 08:34:54;;;;;;;8.13;4.20;;;-0.40;99.90;;;;;;5028383;28;20028;-74
2022/01/07 08:37:28;;;;;;;8.73;4.35;;;-0.30;99.90;;;;;;5026642;28;20036;-75
2022/01/07 08:39:55;;;;;;;5.60;2.95;;;-0.20;99.90;;;;;;5028684;28;20037;-75
2022/01/07 08:42:23;;;;;;;5.35;3.13;;;-0.10;99.90;;;;;;5037729;28;20232;-77
2022/01/07 08:44:52;;;;;;;8.40;3.00;;;0.00;99.90;;;;;;5036436;28;20080;-73
2022/01/07 08:47:23;;;;;;;4.50;3.65;;;0.20;99.90;;;;;;5027325;28;20053;-73
2022/01/07 08:49:50;;;;;;;5.13;2.40;;;0.10;99.90;;;;;;5027949;28;20092;-73
2022/01/07 08:52:16;;;;;;;8.55;2.60;;;0.30;99.90;;;;;;5031414;28;20029;-73
2022/01/07 08:54:42;;;;;;;6.00;2.72;;;0.40;99.90;;;;;;5028151;28;20474;-73
2022/01/07 08:57:07;;;;;;;6.18;3.15;;;0.40;99.90;;;;;;5027796;28;20467;-73
2022/01/07 08:59:33;;;;;;;5.18;2.75;;;0.50;99.90;;;;;;5025930;28;20040;-73
2022/01/07 09:01:59;;;;;;;4.38;3.05;;;0.40;99.90;;;;;;5027291;28;20186;-73
2022/01/07 09:04:25;;;;;;;3.83;2.33;;;0.90;99.90;;;;;;5026024;28;20025;-74
2022/01/07 09:06:50;;;;;;;10.00;2.85;;;0.50;99.90;;;;;;5027977;28;20029;-74
2022/01/07 09:09:16;;;;;;;4.57;2.45;;;0.60;99.90;;;;;;5025646;28;20029;-74
2022/01/07 09:11:42;;;;;;;4.57;2.15;;;0.70;99.90;;;;;;5028707;28;20033;-75
2022/01/07 09:14:08;;;;;;;4.22;2.13;;;0.80;99.90;;;;;;5025794;28;20029;-73
2022/01/07 09:16:33;;;;;;;4.10;3.00;;;0.90;99.90;;;;;;5027184;28;20030;-73
2022/01/07 09:19:00;;;;;;;3.60;2.50;;;1.10;99.90;;;;;;5027546;28;20076;-74
2022/01/07 09:21:27;;;;;;;3.38;2.38;;;1.20;99.90;;;;;;5010630;28;20072;-75
2022/01/07 09:23:53;;;;;;;3.40;2.35;;;1.30;99.90;;;;;;5009498;28;20511;-73
2022/01/07 09:26:19;;;;;;;7.68;2.90;;;1.40;99.90;;;;;;5007130;28;20038;-75
2022/01/07 09:28:45;;;;;;;2.50;2.22;;;1.50;99.90;;;;;;5006998;28;20061;-74
2022/01/07 09:31:11;;;;;;;4.13;2.30;;;1.60;99.90;;;;;;5006359;28;20037;-75
2022/01/07 09:33:38;;;;;;;2.63;2.15;;;3.30;99.90;;;;;;5005647;28;20022;-74
2022/01/07 09:36:04;;;;;;;3.75;2.13;;;1.70;99.90;;;;;;5010616;28;20030;-74
2022/01/07 09:38:30;;;;;;;4.78;1.92;;;1.70;99.90;;;;;;5008717;28;20059;-74
2022/01/07 09:40:56;;;;;;;2.78;2.05;;;1.80;99.90;;;;;;5009822;28;20101;-74
2022/01/07 09:43:22;;;;;;;2.85;1.50;;;1.90;99.90;;;;;;5010692;28;20026;-74
2022/01/07 09:45:49;;;;;;;2.20;1.90;;;2.00;99.90;;;;;;5014278;28;20739;-74
2022/01/07 09:48:15;;;;;;;4.00;2.88;;;2.00;99.90;;;;;;5010167;28;20211;-76
2022/01/07 09:50:41;;;;;;;2.42;1.85;;;2.00;99.90;;;;;;5012021;28;20599;-74
2022/01/07 09:53:09;;;;;;;3.08;2.10;;;2.00;99.90;;;;;;5016778;28;20054;-74
2022/01/07 09:55:35;;;;;;;6.28;2.50;;;2.00;99.90;;;;;;5012380;28;20038;-74
2022/01/07 09:58:02;;;;;;;4.18;2.33;;;2.10;99.90;;;;;;5009724;28;20030;-76
2022/01/07 10:00:38;;;;;;;5.88;2.10;;;2.30;99.90;;;;;;5009109;28;20558;-76
2022/01/07 10:03:07;;;;;;;2.22;2.00;;;2.40;99.90;;;;;;5005646;28;20103;-74
2022/01/07 10:05:41;;;;;;;4.13;2.47;;;2.50;99.90;;;;;;5010750;28;20038;-74
2022/01/07 10:08:35;;;;;;;4.25;2.67;;;2.50;99.90;;;;;;5015528;28;20456;-74
2022/01/07 10:11:19;;;;;;;3.15;2.00;;;2.60;99.90;;;;;;5004030;28;20072;-73
2022/01/07 10:13:50;;;;;;;2.97;2.00;;;2.60;99.90;;;;;;5009982;28;20021;-74
2022/01/07 10:16:22;;;;;;;2.92;2.05;;;2.70;99.90;;;;;;5010473;28;20038;-73
2022/01/07 10:18:48;;;;;;;5.18;2.58;;;2.60;99.90;;;;;;5011735;28;20046;-75
2022/01/07 10:21:16;;;;;;;2.72;2.33;;;2.60;99.90;;;;;;5014830;28;20049;-74
2022/01/07 10:23:43;;;;;;;4.38;2.20;;;2.60;99.90;;;;;;5019137;28;20030;-74
2022/01/07 10:26:17;;;;;;;5.18;1.90;;;2.50;99.90;;;;;;5017570;28;20088;-76
2022/01/07 10:28:44;;;;;;;5.18;1.80;;;2.50;99.90;;;;;;5013033;28;20697;-76
2022/01/07 10:31:10;;;;;;;1.67;1.58;;;2.60;99.90;;;;;;5017543;28;20302;-74
2022/01/07 10:33:39;;;;;;;4.65;2.20;;;2.60;99.90;;;;;;5020315;28;20040;-73
2022/01/07 10:36:07;;;;;;;2.50;2.30;;;2.60;99.90;;;;;;5036582;28;20022;-74
2022/01/07 10:38:53;;;;;;;3.00;1.60;;;2.60;99.90;;;;;;5017468;28;20260;-74
2022/01/07 10:41:20;;;;;;;2.63;2.13;;;2.60;99.90;;;;;;5018446;28;20048;-73
2022/01/07 10:43:46;;;;;;;3.33;2.22;;;2.50;99.90;;;;;;5014311;28;20454;-74
2022/01/07 10:46:27;;;;;;;4.07;2.05;;;2.50;99.90;;;;;;5012293;28;20145;-73
2022/01/07 10:48:59;;;;;;;2.50;1.85;;;2.30;99.90;;;;;;5017331;28;20017;-75
2022/01/07 10:51:28;;;;;;;5.22;2.03;;;2.30;99.90;;;;;;5038410;28;20064;-73
2022/01/07 10:53:55;;;;;;;;;;;2.30;99.90;;;;;;5044704;28;20064;-74
2022/01/07 10:56:24;;;;;;;10.88;3.38;;;2.40;99.90;;;;;;5038946;28;19909;-74
2022/01/07 10:59:00;;;;;;;13.63;3.88;;;2.60;99.90;;;;;;5037989;28;20021;-74
2022/01/07 11:01:33;;;;;;;8.98;4.05;;;2.40;99.90;;;;;;5037029;28;20250;-74
2022/01/07 11:04:01;;;;;;;4.35;2.72;;;2.50;99.90;;;;;;5038960;28;20022;-74
2022/01/07 11:06:29;;;;;;;5.05;2.80;;;2.70;99.90;;;;;;5039362;28;20064;-73
2022/01/07 11:08:56;;;;;;;3.50;3.00;;;2.80;99.90;;;;;;5037237;28;20022;-73
2022/01/07 11:11:26;;;;;;;4.47;2.80;;;2.70;99.90;;;;;;5037648;28;20144;-73
2022/01/07 11:13:52;;;;;;;2.72;2.33;;;3.30;99.90;;;;;;5039665;28;20021;-73
2022/01/07 11:16:18;;;;;;;2.92;2.33;;;3.00;99.90;;;;;;5027462;28;20080;-74
2022/01/07 11:18:46;;;;;;;5.10;3.35;;;2.90;99.90;;;;;;5025720;28;20462;-74
2022/01/07 11:21:16;;;;;;;5.40;2.95;;;3.10;99.90;;;;;;5025836;28;20151;-74
2022/01/07 11:23:42;;;;;;;;;;;3.30;99.90;;;;;;5027521;28;20110;-75
2022/01/07 11:26:12;;;;;;;4.00;2.67;;;3.30;99.90;;;;;;5017250;28;19913;-73
2022/01/07 11:29:00;;;;;;;2.65;2.22;;;3.30;99.90;;;;;;5006570;28;20029;-73
2022/01/07 11:31:27;;;;;;;3.88;2.10;;;3.40;99.90;;;;;;5006804;28;20029;-74
2022/01/07 11:34:18;;;;;;;4.68;1.70;;;3.40;99.90;;;;;;5007838;28;20030;-73
2022/01/07 11:36:44;;;;;;;3.40;2.00;;;3.40;99.90;;;;;;5006835;28;20077;-74
2022/01/07 11:39:10;;;;;;;2.55;1.67;;;3.40;99.90;;;;;;5011964;28;20040;-73
2022/01/07 11:41:44;;;;;;;5.30;2.33;;;5.40;99.90;;;;;;5012021;28;20034;-74
2022/01/07 11:44:30;;;;;;;2.97;1.85;;;3.50;99.90;;;;;;5003221;28;20032;-74
2022/01/07 11:47:19;;;;;;;4.68;1.60;;;3.40;99.90;;;;;;5015542;28;20044;-74
2022/01/07 11:49:45;;;;;;;3.00;1.77;;;3.40;99.90;;;;;;4997944;28;20080;-74
2022/01/07 11:52:32;;;;;;;3.55;1.95;;;3.50;99.90;;;;;;5003247;28;20034;-74
2022/01/07 11:55:16;;;;;;;3.42;1.50;;;3.60;99.90;;;;;;4989890;28;20022;-74
2022/01/07 11:57:54;;;;;;;3.08;1.85;;;3.60;99.90;;;;;;4994760;28;20065;-74
2022/01/07 12:00:51;;;;;;;5.93;2.50;;;3.60;99.90;;;;;;4992974;28;20096;-74
2022/01/07 12:03:36;;;;;;;4.93;1.90;;;3.60;99.90;;;;;;4994470;28;20085;-74
2022/01/07 12:06:20;;;;;;;2.13;1.50;;;3.70;99.90;;;;;;5013212;28;20030;-74
2022/01/07 12:11:31;;;;;;;3.45;1.88;;;3.80;99.90;;;;;;4994946;28;20046;-74
2022/01/07 12:13:58;;;;;;;2.10;1.95;;;3.80;99.90;;;;;;4992816;28;20057;-74
2022/01/07 12:16:32;;;;;;;2.33;1.48;;;3.70;99.90;;;;;;5004978;28;20061;-74
2022/01/07 12:19:16;;;;;;;2.50;1.75;;;3.90;99.90;;;;;;4990175;28;20031;-74
2022/01/07 12:21:43;;;;;;;2.05;1.45;;;4.10;99.90;;;;;;4994757;28;20034;-75
2022/01/07 12:24:11;;;;;;;2.75;1.60;;;4.20;99.90;;;;;;4988531;28;20041;-74
2022/01/07 12:26:37;;;;;;;9.88;4.95;;;4.20;99.90;;;;;;5014648;28;20048;-74
2022/01/07 12:29:04;;;;;;;5.60;3.13;;;4.30;99.90;;;;;;5028300;28;20539;-74
2022/01/07 12:31:30;;;;;;;6.18;2.60;;;4.30;99.90;;;;;;5031190;28;20022;-74
2022/01/07 12:33:59;;;;;;;5.18;2.97;;;4.30;99.90;;;;;;5032382;28;20512;-74
2022/01/07 12:36:29;;;;;;;;;;;4.30;99.90;;;;;;5035623;28;20025;-74
2022/01/07 12:39:08;;;;;;;2.95;2.03;;;4.20;99.90;;;;;;5026267;28;19909;-74
2022/01/07 12:41:35;;;;;;;2.95;2.03;;;4.20;99.90;;;;;;5030372;28;20476;-74
2022/01/07 12:44:12;;;;;;;27.88;11.52;;;4.00;99.90;;;;;;5035251;28;20060;-74
2022/01/07 12:46:40;;;;;;;7.45;3.15;;;3.80;99.90;;;;;;5036070;28;20087;-74
2022/01/07 12:49:09;;;;;;;2.80;1.95;;;3.60;99.90;;;;;;5030095;28;20022;-74
2022/01/07 12:51:36;;;;;;;3.72;2.13;;;3.60;99.90;;;;;;5027914;28;20029;-74
2022/01/07 12:54:08;;;;;;;3.88;1.73;;;3.60;99.90;;;;;;5027801;28;20041;-74
2022/01/07 12:56:37;;;;;;;2.22;1.65;;;3.60;99.90;;;;;;5027270;28;20083;-73
2022/01/07 12:59:17;;;;;;;2.67;1.75;;;3.70;99.90;;;;;;5029874;28;20247;-74
2022/01/07 13:01:45;;;;;;;6.78;3.03;;;3.60;99.90;;;;;;5028818;28;20099;-74
2022/01/07 13:04:16;;;;;;;9.10;3.25;;;3.40;99.90;;;;;;5027207;28;20029;-73
2022/01/07 13:06:46;;;;;;;5.95;3.00;;;3.20;99.90;;;;;;5025881;28;20095;-74